Time;durP1;ratioP1;P1;durP2;ratioP2;P2;SDS_P1;SDS_P2;PMS_P1;PMS_P2;Temp;Humidity;BMP_temperature;BMP_pressure;BME280_temperature;BME280_humidity;BME280_pressure;Samples;Min_cycle;Max_cycle;Signal;HPM_P1;HPM_P2
2022/10/11 00:01:50;;;;;;;9.70;2.63;;;;;;;;;;5059747;28;20519;-68
2022/10/11 00:04:16;;;;;;;33.70;3.05;;;;;;;;;;5062108;28;20088;-67
2022/10/11 00:06:43;;;;;;;8.18;2.40;;;;;;;;;;5061820;28;20452;-68
2022/10/11 00:09:10;;;;;;;7.35;2.13;;;;;;;;;;5058082;28;20053;-67
2022/10/11 00:11:37;;;;;;;4.70;1.70;;;;;;;;;;5058977;28;20499;-68
2022/10/11 00:14:04;;;;;;;11.02;3.25;;;;;;;;;;5059107;28;20056;-67
2022/10/11 00:16:30;;;;;;;11.25;2.53;;;;;;;;;;5059856;28;20056;-67
2022/10/11 00:18:57;;;;;;;7.05;2.65;;;;;;;;;;5060443;28;20454;-67
2022/10/11 00:21:23;;;;;;;7.35;2.40;;;;;;;;;;5060071;28;20106;-68
2022/10/11 00:23:50;;;;;;;7.95;2.15;;;;;;;;;;5059867;28;20052;-67
2022/10/11 00:26:17;;;;;;;10.75;3.10;;;;;;;;;;5059157;28;20054;-67
2022/10/11 00:28:43;;;;;;;18.48;2.97;;;;;;;;;;5062325;28;20041;-67
2022/10/11 00:31:12;;;;;;;11.38;2.80;;;;;;;;;;5059242;28;20048;-67
2022/10/11 00:33:38;;;;;;;10.63;2.92;;;;;;;;;;5071758;28;20119;-67
2022/10/11 00:36:05;;;;;;;8.27;1.83;;;;;;;;;;5058757;28;20490;-67
2022/10/11 00:38:33;;;;;;;7.10;2.35;;;;;;;;;;5062321;28;20506;-67
2022/10/11 00:40:59;;;;;;;11.77;2.67;;;;;;;;;;5058977;28;20052;-67
2022/10/11 00:43:28;;;;;;;6.10;1.73;;;;;;;;;;5060070;28;20061;-68
2022/10/11 00:45:54;;;;;;;7.70;2.13;;;;;;;;;;5059170;28;20057;-68
2022/10/11 00:48:22;;;;;;;8.43;2.10;;;;;;;;;;5057755;28;20060;-67
2022/10/11 00:50:49;;;;;;;5.32;2.08;;;;;;;;;;5055080;28;20049;-68
2022/10/11 00:53:15;;;;;;;8.52;2.33;;;;;;;;;;5060684;28;20053;-68
2022/10/11 00:55:54;;;;;;;7.45;2.38;;;;;;;;;;5062473;28;20103;-67
2022/10/11 00:58:21;;;;;;;10.35;2.00;;;;;;;;;;5064774;28;20180;-67
2022/10/11 01:00:48;;;;;;;9.82;2.63;;;;;;;;;;5059604;28;20982;-67
2022/10/11 01:03:15;;;;;;;8.93;2.10;;;;;;;;;;5058789;28;20600;-68
2022/10/11 01:05:42;;;;;;;8.93;2.53;;;;;;;;;;5060084;28;20049;-67
2022/10/11 01:08:09;;;;;;;7.13;2.20;;;;;;;;;;5060511;28;20053;-67
2022/10/11 01:10:35;;;;;;;9.40;2.55;;;;;;;;;;5059966;28;20053;-67
2022/10/11 01:13:14;;;;;;;9.63;2.67;;;;;;;;;;5057743;28;20056;-67
2022/10/11 01:15:50;;;;;;;8.32;2.97;;;;;;;;;;5057871;28;20057;-68
2022/10/11 01:18:35;;;;;;;6.90;2.20;;;;;;;;;;5055312;28;20530;-67
2022/10/11 01:21:04;;;;;;;8.38;2.80;;;;;;;;;;5059667;28;20056;-67
2022/10/11 01:23:54;;;;;;;8.43;1.92;;;;;;;;;;5063344;28;20088;-67
2022/10/11 01:26:33;;;;;;;4.15;1.90;;;;;;;;;;5062306;28;20148;-68
2022/10/11 01:29:02;;;;;;;4.05;2.10;;;;;;;;;;5066231;28;20124;-67
2022/10/11 01:31:41;;;;;;;6.55;2.35;;;;;;;;;;5061059;28;20816;-68
2022/10/11 01:34:13;;;;;;;12.82;2.58;;;;;;;;;;5062532;28;20064;-67
2022/10/11 01:36:46;;;;;;;6.88;2.47;;;;;;;;;;5063655;28;20049;-68
2022/10/11 01:39:15;;;;;;;9.95;2.35;;;;;;;;;;5061964;28;20064;-68
2022/10/11 01:41:45;;;;;;;8.85;1.77;;;;;;;;;;5060332;28;20049;-68
2022/10/11 01:44:12;;;;;;;8.13;2.25;;;;;;;;;;5063370;28;20057;-68
2022/10/11 01:46:39;;;;;;;13.88;3.63;;;;;;;;;;5061772;28;20049;-68
2022/10/11 01:49:06;;;;;;;9.18;2.42;;;;;;;;;;5057592;28;20045;-67
2022/10/11 01:51:45;;;;;;;12.10;2.38;;;;;;;;;;5061553;28;20088;-68
2022/10/11 01:54:15;;;;;;;6.15;1.67;;;;;;;;;;5061783;28;20541;-68
2022/10/11 01:56:48;;;;;;;14.23;3.20;;;;;;;;;;5064456;28;20511;-67
2022/10/11 01:59:15;;;;;;;8.90;2.55;;;;;;;;;;5061367;28;20515;-68
2022/10/11 02:01:41;;;;;;;6.65;2.35;;;;;;;;;;5062927;28;20049;-69
2022/10/11 02:04:11;;;;;;;5.57;2.05;;;;;;;;;;5061100;28;20474;-68
2022/10/11 02:06:47;;;;;;;9.77;2.25;;;;;;;;;;5061245;28;20061;-68
2022/10/11 02:09:20;;;;;;;9.60;2.20;;;;;;;;;;5057074;28;20049;-67
2022/10/11 02:11:46;;;;;;;7.25;1.80;;;;;;;;;;5057785;28;20068;-67
2022/10/11 02:14:18;;;;;;;7.82;2.33;;;;;;;;;;5057240;28;20049;-68
2022/10/11 02:16:48;;;;;;;12.18;1.95;;;;;;;;;;5060791;28;20088;-68
2022/10/11 02:19:17;;;;;;;7.07;1.98;;;;;;;;;;5060664;28;20060;-67
2022/10/11 02:21:46;;;;;;;7.32;2.75;;;;;;;;;;5061698;28;20053;-68
2022/10/11 02:24:15;;;;;;;6.57;1.98;;;;;;;;;;5061991;28;20525;-68
2022/10/11 02:26:45;;;;;;;7.13;1.85;;;;;;;;;;5063792;28;20058;-67
2022/10/11 02:29:13;;;;;;;15.75;2.45;;;;;;;;;;5063502;28;20049;-68
2022/10/11 02:31:40;;;;;;;5.70;1.60;;;;;;;;;;5057060;28;20561;-67
2022/10/11 02:34:07;;;;;;;8.52;2.58;;;;;;;;;;5062130;28;20051;-67
2022/10/11 02:36:39;;;;;;;6.95;2.00;;;;;;;;;;5061267;28;20099;-68
2022/10/11 02:39:10;;;;;;;6.63;2.47;;;;;;;;;;5067105;28;21748;-67
2022/10/11 02:41:38;;;;;;;8.90;2.30;;;;;;;;;;5059325;28;20057;-68
2022/10/11 02:44:25;;;;;;;10.05;2.28;;;;;;;;;;5059441;28;20060;-68
2022/10/11 02:46:52;;;;;;;8.45;2.42;;;;;;;;;;5059289;28;20060;-67
2022/10/11 02:49:18;;;;;;;7.45;2.08;;;;;;;;;;5057955;28;20053;-67
2022/10/11 02:51:45;;;;;;;8.43;2.20;;;;;;;;;;5059635;28;20122;-68
2022/10/11 02:54:11;;;;;;;13.95;2.20;;;;;;;;;;5060605;28;20048;-67
2022/10/11 02:56:37;;;;;;;7.15;2.00;;;;;;;;;;5061057;28;20049;-67
2022/10/11 02:59:04;;;;;;;6.03;2.05;;;;;;;;;;5058790;28;20496;-67
2022/10/11 03:01:30;;;;;;;5.45;1.73;;;;;;;;;;5060292;28;20549;-67
2022/10/11 03:03:57;;;;;;;4.95;2.00;;;;;;;;;;5060972;28;20045;-67
2022/10/11 03:06:23;;;;;;;4.93;1.90;;;;;;;;;;5057210;28;20049;-67
2022/10/11 03:08:49;;;;;;;15.23;2.83;;;;;;;;;;5062092;28;20041;-67
2022/10/11 03:11:16;;;;;;;10.80;1.80;;;;;;;;;;5058320;28;20057;-67
2022/10/11 03:13:42;;;;;;;5.68;2.42;;;;;;;;;;5060856;28;20057;-67
2022/10/11 03:16:09;;;;;;;10.63;2.53;;;;;;;;;;5060006;28;20045;-68
2022/10/11 03:18:35;;;;;;;8.45;2.10;;;;;;;;;;5060637;28;20052;-67
2022/10/11 03:21:02;;;;;;;6.32;1.90;;;;;;;;;;5056017;28;20096;-67
2022/10/11 03:23:28;;;;;;;14.40;2.15;;;;;;;;;;5047573;28;20049;-67
2022/10/11 03:25:55;;;;;;;7.88;2.10;;;;;;;;;;5059022;28;20053;-67
2022/10/11 03:28:21;;;;;;;5.80;1.73;;;;;;;;;;5059262;28;20058;-67
2022/10/11 03:30:48;;;;;;;8.15;1.42;;;;;;;;;;5060980;28;20065;-67
2022/10/11 03:33:16;;;;;;;5.03;1.60;;;;;;;;;;5060923;28;20055;-67
2022/10/11 03:35:45;;;;;;;7.38;1.65;;;;;;;;;;5061448;28;20048;-68
2022/10/11 03:38:13;;;;;;;10.93;2.42;;;;;;;;;;5060030;28;20231;-67
2022/10/11 03:40:39;;;;;;;7.88;2.03;;;;;;;;;;5059359;28;20057;-68
2022/10/11 03:43:06;;;;;;;9.55;1.92;;;;;;;;;;5059529;28;20535;-67
2022/10/11 03:45:32;;;;;;;7.90;2.88;;;;;;;;;;5062004;28;20057;-67
2022/10/11 03:47:58;;;;;;;7.78;2.20;;;;;;;;;;5060509;28;20438;-67
2022/10/11 03:50:25;;;;;;;6.85;2.15;;;;;;;;;;5060622;28;20099;-67
2022/10/11 03:52:51;;;;;;;6.53;1.85;;;;;;;;;;5054075;28;20116;-67
2022/10/11 03:55:17;;;;;;;9.45;2.20;;;;;;;;;;5061196;28;20045;-68
2022/10/11 03:57:44;;;;;;;8.60;2.53;;;;;;;;;;5055324;28;20564;-67
2022/10/11 04:00:10;;;;;;;6.88;2.55;;;;;;;;;;5059373;28;20508;-67
2022/10/11 04:02:36;;;;;;;6.70;1.85;;;;;;;;;;5059397;28;20057;-67
2022/10/11 04:05:05;;;;;;;7.55;2.20;;;;;;;;;;5059172;28;20057;-67
2022/10/11 04:07:32;;;;;;;3.55;1.95;;;;;;;;;;5054490;28;20053;-67
2022/10/11 04:09:58;;;;;;;10.48;2.45;;;;;;;;;;5058923;28;20579;-67
2022/10/11 04:12:24;;;;;;;5.35;1.98;;;;;;;;;;5059346;28;20059;-68
2022/10/11 04:14:51;;;;;;;7.43;2.20;;;;;;;;;;5059237;28;20049;-67
2022/10/11 04:17:17;;;;;;;6.68;1.92;;;;;;;;;;5058091;28;20056;-68
2022/10/11 04:19:43;;;;;;;8.50;2.22;;;;;;;;;;5059892;28;20083;-68
2022/10/11 04:22:09;;;;;;;6.95;2.20;;;;;;;;;;5058172;28;20045;-67
2022/10/11 04:24:36;;;;;;;10.38;2.40;;;;;;;;;;5059034;28;20049;-67
2022/10/11 04:27:02;;;;;;;5.68;2.05;;;;;;;;;;5054340;28;20053;-68
2022/10/11 04:29:28;;;;;;;5.75;2.20;;;;;;;;;;5060693;28;20060;-67
2022/10/11 04:31:58;;;;;;;7.55;2.50;;;;;;;;;;5057703;28;20048;-67
2022/10/11 04:34:24;;;;;;;4.82;1.55;;;;;;;;;;5058585;28;20072;-67
2022/10/11 04:36:50;;;;;;;7.03;2.15;;;;;;;;;;5058318;28;20053;-67
2022/10/11 04:39:16;;;;;;;8.93;2.45;;;;;;;;;;5060614;28;20274;-67
2022/10/11 04:41:43;;;;;;;5.50;2.10;;;;;;;;;;5056939;28;20147;-67
2022/10/11 04:44:09;;;;;;;6.10;1.98;;;;;;;;;;5055212;28;20053;-67
2022/10/11 04:46:35;;;;;;;9.85;2.75;;;;;;;;;;5057770;28;20056;-68
2022/10/11 04:49:02;;;;;;;3.80;1.65;;;;;;;;;;5057812;28;20816;-67
2022/10/11 04:51:29;;;;;;;8.02;2.38;;;;;;;;;;5058313;28;20107;-67
2022/10/11 04:53:55;;;;;;;4.82;1.90;;;;;;;;;;5059543;28;20052;-67
2022/10/11 04:56:21;;;;;;;9.93;2.50;;;;;;;;;;5060985;28;20056;-68
2022/10/11 04:58:48;;;;;;;5.40;2.10;;;;;;;;;;5063851;28;20107;-67
2022/10/11 05:01:14;;;;;;;6.47;2.50;;;;;;;;;;5062689;28;20051;-67
2022/10/11 05:03:42;;;;;;;10.07;2.58;;;;;;;;;;5063082;28;20053;-68
2022/10/11 05:06:08;;;;;;;8.82;2.13;;;;;;;;;;5060793;28;20060;-67
2022/10/11 05:08:35;;;;;;;11.07;2.13;;;;;;;;;;5063845;28;20048;-67
2022/10/11 05:11:03;;;;;;;7.32;2.70;;;;;;;;;;5058507;28;20057;-67
2022/10/11 05:13:30;;;;;;;6.95;1.95;;;;;;;;;;5061463;28;20049;-67
2022/10/11 05:15:56;;;;;;;6.18;2.55;;;;;;;;;;5064388;28;20049;-67
2022/10/11 05:18:23;;;;;;;4.30;2.60;;;;;;;;;;5062338;28;20076;-67
2022/10/11 05:20:59;;;;;;;7.13;2.25;;;;;;;;;;5057309;28;20104;-67
2022/10/11 05:23:25;;;;;;;9.00;2.85;;;;;;;;;;5049763;28;20403;-67
2022/10/11 05:25:52;;;;;;;9.65;2.78;;;;;;;;;;5063416;28;20057;-67
2022/10/11 05:28:19;;;;;;;8.32;2.33;;;;;;;;;;5063006;28;21102;-67
2022/10/11 05:30:45;;;;;;;9.20;3.20;;;;;;;;;;5062892;28;20064;-67
2022/10/11 05:33:11;;;;;;;6.53;2.33;;;;;;;;;;5061178;28;20621;-67
2022/10/11 05:35:38;;;;;;;6.10;2.20;;;;;;;;;;5059475;28;20088;-67
2022/10/11 05:38:04;;;;;;;9.25;2.42;;;;;;;;;;5064703;28;20533;-67
2022/10/11 05:40:32;;;;;;;11.20;3.30;;;;;;;;;;5069969;28;20056;-67
2022/10/11 05:42:58;;;;;;;10.32;2.25;;;;;;;;;;5063845;28;20053;-67
2022/10/11 05:45:24;;;;;;;5.00;2.67;;;;;;;;;;5060441;28;20060;-68
2022/10/11 05:47:51;;;;;;;7.15;2.58;;;;;;;;;;5061693;28;20521;-67
2022/10/11 05:50:17;;;;;;;10.07;2.67;;;;;;;;;;5057243;28;20588;-64
2022/10/11 05:52:49;;;;;;;4.53;2.47;;;;;;;;;;5061770;28;20514;-65
2022/10/11 05:55:15;;;;;;;8.00;2.83;;;;;;;;;;5056569;28;20057;-65
2022/10/11 05:57:43;;;;;;;6.07;2.63;;;;;;;;;;5056079;28;20048;-64
2022/10/11 06:00:09;;;;;;;13.13;3.67;;;;;;;;;;5063409;28;20099;-65
2022/10/11 06:02:36;;;;;;;12.32;3.20;;;;;;;;;;5060835;28;20057;-64
2022/10/11 06:05:02;;;;;;;6.43;3.25;;;;;;;;;;5062495;28;20147;-65
2022/10/11 06:07:28;;;;;;;4.85;2.88;;;;;;;;;;5058825;28;20558;-65
2022/10/11 06:09:55;;;;;;;6.22;2.75;;;;;;;;;;5063776;28;20537;-65
2022/10/11 06:12:21;;;;;;;14.10;2.83;;;;;;;;;;5061601;28;20053;-65
2022/10/11 06:14:47;;;;;;;8.82;2.70;;;;;;;;;;5062896;28;20056;-67
2022/10/11 06:17:14;;;;;;;9.07;2.80;;;;;;;;;;5056639;28;20056;-65
2022/10/11 06:19:40;;;;;;;11.38;3.15;;;;;;;;;;5061353;28;20080;-66
2022/10/11 06:22:09;;;;;;;10.60;2.78;;;;;;;;;;5060455;28;20056;-66
2022/10/11 06:24:35;;;;;;;9.98;3.17;;;;;;;;;;5061367;28;20519;-66
2022/10/11 06:27:01;;;;;;;8.70;2.80;;;;;;;;;;5059934;28;20079;-67
2022/10/11 06:29:28;;;;;;;11.00;3.17;;;;;;;;;;5063155;28;20053;-68
2022/10/11 06:31:54;;;;;;;10.68;3.30;;;;;;;;;;5062216;28;20110;-67
2022/10/11 06:34:20;;;;;;;10.00;3.60;;;;;;;;;;5060958;28;20045;-68
2022/10/11 06:36:46;;;;;;;13.88;3.70;;;;;;;;;;5062004;28;20056;-67
2022/10/11 06:39:13;;;;;;;8.98;3.75;;;;;;;;;;5063206;28;20057;-67
2022/10/11 06:41:39;;;;;;;10.73;3.42;;;;;;;;;;5060719;28;20531;-66
2022/10/11 06:44:05;;;;;;;11.05;3.97;;;;;;;;;;5061659;28;20057;-67
2022/10/11 06:46:38;;;;;;;14.88;3.92;;;;;;;;;;5061948;28;20045;-69
2022/10/11 06:49:05;;;;;;;6.20;3.33;;;;;;;;;;5060612;28;20585;-67
2022/10/11 06:51:31;;;;;;;6.38;3.45;;;;;;;;;;5061239;28;20049;-67
2022/10/11 06:53:58;;;;;;;7.35;3.60;;;;;;;;;;5060150;28;20099;-68
2022/10/11 06:56:25;;;;;;;9.30;3.75;;;;;;;;;;5066478;28;20054;-68
2022/10/11 06:58:52;;;;;;;7.40;3.70;;;;;;;;;;5070050;28;20065;-68
2022/10/11 07:01:20;;;;;;;9.55;3.90;;;;;;;;;;5056397;28;20079;-67
2022/10/11 07:03:46;;;;;;;7.68;3.78;;;;;;;;;;5064446;28;20138;-67
2022/10/11 07:06:14;;;;;;;9.48;3.95;;;;;;;;;;5073394;28;20064;-64
2022/10/11 07:08:40;;;;;;;11.80;3.95;;;;;;;;;;5082786;28;20057;-68
2022/10/11 07:11:10;;;;;;;9.80;3.53;;;;;;;;;;5067224;28;20065;-69
2022/10/11 07:13:37;;;;;;;12.90;4.80;;;;;;;;;;5065073;28;20053;-68
2022/10/11 07:16:04;;;;;;;10.13;3.55;;;;;;;;;;5068650;28;20525;-68
2022/10/11 07:18:31;;;;;;;9.98;3.55;;;;;;;;;;5083110;28;20406;-68
2022/10/11 07:21:04;;;;;;;12.65;4.63;;;;;;;;;;5059467;28;20546;-68
2022/10/11 07:23:31;;;;;;;12.40;5.00;;;;;;;;;;5051848;28;20060;-65
2022/10/11 07:25:57;;;;;;;8.32;3.88;;;;;;;;;;5063049;28;20087;-68
2022/10/11 07:28:24;;;;;;;7.53;4.20;;;;;;;;;;5048284;28;20223;-67
2022/10/11 07:30:51;;;;;;;9.23;4.20;;;;;;;;;;5061708;28;20055;-68
2022/10/11 07:33:17;;;;;;;10.63;4.35;;;;;;;;;;5057687;28;20522;-68
2022/10/11 07:35:44;;;;;;;15.27;5.30;;;;;;;;;;5069077;28;20981;-69
2022/10/11 07:38:14;;;;;;;11.75;4.47;;;;;;;;;;5059675;28;20057;-67
2022/10/11 07:40:44;;;;;;;13.27;4.68;;;;;;;;;;5077497;28;20053;-67
2022/10/11 07:43:11;;;;;;;11.07;5.45;;;;;;;;;;5076609;28;20533;-67
2022/10/11 07:45:38;;;;;;;9.45;4.35;;;;;;;;;;5066820;28;20045;-67
2022/10/11 07:48:04;;;;;;;10.75;4.55;;;;;;;;;;5076384;28;20057;-69
2022/10/11 07:50:31;;;;;;;9.60;4.28;;;;;;;;;;5083588;28;20066;-69
2022/10/11 07:52:58;;;;;;;13.98;4.60;;;;;;;;;;5072056;28;20052;-68
2022/10/11 07:55:26;;;;;;;8.68;4.60;;;;;;;;;;5077210;28;20056;-68
2022/10/11 07:57:55;;;;;;;8.80;5.05;;;;;;;;;;5083062;28;20053;-68
2022/10/11 08:00:22;;;;;;;12.82;4.30;;;;;;;;;;5074964;28;20049;-68
2022/10/11 08:02:49;;;;;;;12.85;4.43;;;;;;;;;;5059994;28;20053;-68
2022/10/11 08:05:15;;;;;;;11.75;4.72;;;;;;;;;;5061679;28;20064;-67
2022/10/11 08:07:42;;;;;;;9.43;4.45;;;;;;;;;;5062248;28;20064;-65
2022/10/11 08:10:08;;;;;;;10.23;4.55;;;;;;;;;;5078524;28;20055;-65
2022/10/11 08:12:35;;;;;;;9.38;4.60;;;;;;;;;;5060684;28;20064;-67
2022/10/11 08:15:01;;;;;;;7.63;4.45;;;;;;;;;;5059194;28;20411;-67
2022/10/11 08:17:28;;;;;;;13.88;4.53;;;;;;;;;;5066490;28;20049;-68
2022/10/11 08:19:56;;;;;;;15.70;4.63;;;;;;;;;;5061778;28;20061;-67
2022/10/11 08:22:23;;;;;;;8.90;3.05;;;;;;;;;;5061894;28;20060;-67
2022/10/11 08:24:50;;;;;;;13.23;3.05;;;;;;;;;;5063121;28;20056;-65
2022/10/11 08:27:16;;;;;;;9.35;2.60;;;;;;;;;;5068898;28;20049;-66
2022/10/11 08:29:42;;;;;;;9.88;2.80;;;;;;;;;;5078993;28;20057;-65
2022/10/11 08:32:10;;;;;;;12.00;2.47;;;;;;;;;;5080616;28;20790;-66
2022/10/11 08:34:37;;;;;;;10.05;3.08;;;;;;;;;;5071945;28;20060;-65
2022/10/11 08:37:04;;;;;;;8.02;2.28;;;;;;;;;;5079406;28;20502;-65
2022/10/11 08:39:30;;;;;;;6.47;1.83;;;;;;;;;;5063170;28;20060;-70
2022/10/11 08:41:59;;;;;;;7.53;2.08;;;;;;;;;;5074596;28;20579;-68
2022/10/11 08:44:31;;;;;;;12.23;2.22;;;;;;;;;;5061725;28;20053;-65
2022/10/11 08:47:29;;;;;;;9.10;2.80;;;;;;;;;;5067569;28;20054;-64
2022/10/11 08:49:56;;;;;;;9.80;1.90;;;;;;;;;;5081694;28;20098;-65
2022/10/11 08:52:27;;;;;;;15.35;1.92;;;;;;;;;;5081661;28;20044;-68
2022/10/11 08:54:55;;;;;;;8.18;1.77;;;;;;;;;;5061761;28;20057;-70
2022/10/11 08:57:23;;;;;;;16.52;3.00;;;;;;;;;;5055753;28;20060;-67
2022/10/11 08:59:52;;;;;;;10.50;1.83;;;;;;;;;;5061179;28;20056;-68
2022/10/11 09:02:26;;;;;;;8.00;1.88;;;;;;;;;;5061743;28;20048;-68
2022/10/11 09:05:14;;;;;;;7.95;1.63;;;;;;;;;;5061268;28;20111;-67
2022/10/11 09:08:09;;;;;;;8.77;2.03;;;;;;;;;;5063675;28;20060;-67
2022/10/11 09:10:50;;;;;;;10.98;1.75;;;;;;;;;;5081734;28;20510;-70
2022/10/11 09:13:33;;;;;;;8.57;2.30;;;;;;;;;;5065247;28;21015;-66
2022/10/11 09:16:12;;;;;;;5.20;1.30;;;;;;;;;;5068026;28;20058;-67
2022/10/11 09:18:46;;;;;;;7.65;1.63;;;;;;;;;;5073721;28;20049;-68
2022/10/11 09:21:15;;;;;;;9.85;2.05;;;;;;;;;;5060351;28;20060;-69
2022/10/11 09:24:00;;;;;;;4.88;1.60;;;;;;;;;;5070057;28;20056;-68
2022/10/11 09:26:29;;;;;;;8.20;1.73;;;;;;;;;;5076609;28;20056;-67
2022/10/11 09:28:59;;;;;;;8.38;1.88;;;;;;;;;;5075997;28;20135;-68
2022/10/11 09:31:27;;;;;;;12.68;1.67;;;;;;;;;;5076349;28;20044;-67
2022/10/11 09:33:54;;;;;;;8.88;2.28;;;;;;;;;;5070796;28;20056;-66
2022/10/11 09:36:39;;;;;;;7.32;1.55;;;;;;;;;;5075330;28;20056;-66
2022/10/11 09:39:12;;;;;;;6.63;1.33;;;;;;;;;;5070764;28;20049;-69
2022/10/11 09:41:48;;;;;;;5.45;1.30;;;;;;;;;;5079766;28;20053;-68
2022/10/11 09:44:21;;;;;;;9.98;1.52;;;;;;;;;;5069864;28;20525;-67
2022/10/11 09:46:48;;;;;;;14.75;3.38;;;;;;;;;;5071718;28;20415;-67
2022/10/11 09:49:15;;;;;;;10.50;2.10;;;;;;;;;;5079583;28;20047;-65
2022/10/11 09:51:43;;;;;;;6.53;1.50;;;;;;;;;;5084845;28;20060;-65
2022/10/11 09:54:10;;;;;;;7.03;1.30;;;;;;;;;;5084195;28;20058;-67
2022/10/11 09:56:40;;;;;;;11.02;2.35;;;;;;;;;;5084556;28;20045;-67
2022/10/11 09:59:08;;;;;;;8.52;2.03;;;;;;;;;;5079711;28;20506;-67
2022/10/11 10:01:35;;;;;;;5.25;1.25;;;;;;;;;;5065089;28;20037;-66
2022/10/11 10:04:03;;;;;;;7.50;2.05;;;;;;;;;;5079929;28;20509;-68
2022/10/11 10:06:30;;;;;;;7.53;1.40;;;;;;;;;;5074378;28;20075;-68
2022/10/11 10:09:16;;;;;;;12.05;1.95;;;;;;;;;;5084416;28;20060;-67
2022/10/11 10:11:42;;;;;;;10.13;1.92;;;;;;;;;;5058378;28;20114;-67
2022/10/11 10:14:16;;;;;;;13.48;2.15;;;;;;;;;;5067874;28;20056;-67
2022/10/11 10:16:43;;;;;;;7.72;1.27;;;;;;;;;;5063979;28;20060;-68
2022/10/11 10:19:17;;;;;;;5.30;2.03;;;;;;;;;;5074129;28;20053;-68
2022/10/11 10:21:45;;;;;;;7.13;1.65;;;;;;;;;;5075247;28;20057;-67
2022/10/11 10:24:28;;;;;;;6.15;1.65;;;;;;;;;;5068566;28;20049;-67
2022/10/11 10:27:06;;;;;;;8.75;2.10;;;;;;;;;;5064738;28;20053;-67
2022/10/11 10:29:32;;;;;;;7.30;1.75;;;;;;;;;;5069567;28;20462;-67
2022/10/11 10:32:01;;;;;;;6.07;1.85;;;;;;;;;;5083515;28;20060;-68
2022/10/11 10:34:59;;;;;;;6.75;1.77;;;;;;;;;;5071796;28;20055;-67
2022/10/11 10:37:30;;;;;;;9.32;1.67;;;;;;;;;;5073482;28;20076;-67
2022/10/11 10:40:00;;;;;;;10.90;1.85;;;;;;;;;;5066899;28;20063;-67
2022/10/11 10:42:27;;;;;;;9.18;2.25;;;;;;;;;;5083087;28;20087;-67
2022/10/11 10:44:55;;;;;;;10.80;2.00;;;;;;;;;;5084023;28;20055;-67
2022/10/11 10:47:37;;;;;;;7.13;2.55;;;;;;;;;;5066117;28;20574;-67
2022/10/11 10:50:15;;;;;;;6.65;2.10;;;;;;;;;;5052314;28;20620;-64
2022/10/11 10:52:55;;;;;;;7.05;1.50;;;;;;;;;;5068490;28;20057;-64
2022/10/11 10:55:37;;;;;;;13.18;2.33;;;;;;;;;;5064419;28;20577;-67
2022/10/11 10:58:22;;;;;;;5.25;1.50;;;;;;;;;;5057730;28;20548;-67
2022/10/11 11:00:49;;;;;;;8.87;1.73;;;;;;;;;;5061965;28;20049;-69
2022/10/11 11:03:25;;;;;;;11.80;2.15;;;;;;;;;;5074857;28;20048;-68
2022/10/11 11:05:54;;;;;;;6.47;1.40;;;;;;;;;;5062398;28;20041;-67
2022/10/11 11:08:37;;;;;;;3.92;1.23;;;;;;;;;;5057169;28;20053;-68
2022/10/11 11:11:03;;;;;;;8.77;1.33;;;;;;;;;;5061864;28;20051;-70
2022/10/11 11:13:35;;;;;;;12.75;1.75;;;;;;;;;;5061168;28;20052;-71
2022/10/11 11:16:02;;;;;;;7.40;1.45;;;;;;;;;;5069625;28;20544;-71
2022/10/11 11:18:35;;;;;;;7.38;2.03;;;;;;;;;;5067255;28;20041;-70
2022/10/11 11:21:20;;;;;;;7.57;1.30;;;;;;;;;;5059274;28;20048;-69
2022/10/11 11:23:58;;;;;;;4.53;1.58;;;;;;;;;;5063705;28;20060;-68
2022/10/11 11:26:27;;;;;;;11.52;2.45;;;;;;;;;;5070132;28;20053;-67
2022/10/11 11:29:09;;;;;;;12.35;1.98;;;;;;;;;;5069613;28;20517;-67
2022/10/11 11:31:41;;;;;;;12.52;2.50;;;;;;;;;;5068057;28;20093;-67
2022/10/11 11:34:15;;;;;;;6.75;2.22;;;;;;;;;;5063379;28;20495;-68
2022/10/11 11:36:46;;;;;;;8.05;1.92;;;;;;;;;;5066108;28;20056;-68
2022/10/11 11:39:28;;;;;;;8.90;1.70;;;;;;;;;;5077624;28;20140;-68
2022/10/11 11:42:04;;;;;;;8.27;1.48;;;;;;;;;;5053712;28;20050;-64
2022/10/11 11:44:33;;;;;;;6.93;1.73;;;;;;;;;;5061040;28;20060;-65
2022/10/11 11:47:01;;;;;;;8.68;1.42;;;;;;;;;;5061789;28;20067;-65
2022/10/11 11:49:31;;;;;;;7.03;1.50;;;;;;;;;;5067625;28;20049;-66
2022/10/11 11:51:58;;;;;;;4.95;1.20;;;;;;;;;;5072046;28;20060;-66
2022/10/11 11:54:24;;;;;;;8.55;2.17;;;;;;;;;;5069352;28;20052;-65
2022/10/11 11:56:55;;;;;;;9.57;1.65;;;;;;;;;;5070243;28;20052;-65
2022/10/11 11:59:22;;;;;;;4.57;1.23;;;;;;;;;;5076121;28;20053;-67
2022/10/11 12:01:56;;;;;;;9.20;1.42;;;;;;;;;;5061703;28;20150;-66
2022/10/11 12:04:32;;;;;;;6.80;1.67;;;;;;;;;;5061844;28;20866;-67
2022/10/11 12:07:06;;;;;;;9.45;1.95;;;;;;;;;;5060962;28;20051;-66
2022/10/11 12:09:49;;;;;;;6.25;1.40;;;;;;;;;;5070927;28;20717;-67
2022/10/11 12:12:33;;;;;;;5.13;1.20;;;;;;;;;;5071200;28;20092;-66
2022/10/11 12:15:09;;;;;;;8.55;1.67;;;;;;;;;;5067290;28;20045;-67
2022/10/11 12:17:54;;;;;;;6.40;1.60;;;;;;;;;;5065239;28;20498;-66
2022/10/11 12:20:25;;;;;;;14.82;2.05;;;;;;;;;;5061243;28;20052;-65
2022/10/11 12:22:53;;;;;;;9.63;2.05;;;;;;;;;;5066826;28;20161;-65
2022/10/11 12:25:31;;;;;;;9.60;2.08;;;;;;;;;;5076335;28;20219;-67
2022/10/11 12:28:18;;;;;;;14.90;3.25;;;;;;;;;;5043676;28;20057;-66
2022/10/11 12:30:49;;;;;;;10.35;1.55;;;;;;;;;;5074214;28;20135;-67
2022/10/11 12:33:15;;;;;;;7.93;1.60;;;;;;;;;;5072456;28;20433;-68
2022/10/11 12:35:54;;;;;;;10.90;2.03;;;;;;;;;;5066720;28;20049;-68
2022/10/11 12:38:27;;;;;;;8.52;2.13;;;;;;;;;;5071096;28;20049;-68
2022/10/11 12:40:56;;;;;;;12.38;1.95;;;;;;;;;;5062304;28;20060;-68
2022/10/11 12:43:25;;;;;;;6.47;1.60;;;;;;;;;;5056768;28;20055;-67
2022/10/11 12:45:51;;;;;;;8.85;1.50;;;;;;;;;;5062200;28;20053;-67
2022/10/11 12:48:40;;;;;;;5.15;1.58;;;;;;;;;;5064760;28;20809;-67
2022/10/11 12:51:21;;;;;;;6.10;1.60;;;;;;;;;;5064524;28;20617;-68
2022/10/11 12:54:02;;;;;;;7.10;1.80;;;;;;;;;;5054623;28;20547;-69
2022/10/11 12:56:56;;;;;;;6.38;1.58;;;;;;;;;;5064586;28;20455;-68
2022/10/11 12:59:23;;;;;;;9.13;2.22;;;;;;;;;;5066251;28;20519;-68
2022/10/11 13:01:53;;;;;;;9.52;1.65;;;;;;;;;;5064784;28;20084;-68
2022/10/11 13:04:22;;;;;;;10.65;3.03;;;;;;;;;;5063664;28;20048;-68
2022/10/11 13:06:52;;;;;;;7.80;1.70;;;;;;;;;;5063839;28;20053;-68
2022/10/11 13:09:26;;;;;;;8.25;1.60;;;;;;;;;;5061641;28;20056;-68
2022/10/11 13:12:12;;;;;;;8.48;1.80;;;;;;;;;;5092765;27;20143;-69
2022/10/11 13:14:41;;;;;;;5.88;1.40;;;;;;;;;;5066995;28;20057;-67
2022/10/11 13:17:20;;;;;;;5.18;1.23;;;;;;;;;;5064618;28;20107;-67
2022/10/11 13:19:50;;;;;;;5.50;1.60;;;;;;;;;;5067075;28;20057;-67
2022/10/11 13:22:18;;;;;;;5.45;1.67;;;;;;;;;;5065439;28;20122;-66
2022/10/11 13:24:44;;;;;;;8.77;1.30;;;;;;;;;;5064836;28;20071;-67
2022/10/11 13:27:15;;;;;;;8.88;2.08;;;;;;;;;;5067389;28;20061;-67
2022/10/11 13:29:43;;;;;;;7.57;2.17;;;;;;;;;;5067454;28;20049;-67
2022/10/11 13:32:12;;;;;;;12.90;1.40;;;;;;;;;;5061631;28;20076;-67
2022/10/11 13:34:39;;;;;;;5.50;1.40;;;;;;;;;;5066436;28;20049;-67
2022/10/11 13:37:06;;;;;;;8.60;1.98;;;;;;;;;;5066892;28;20513;-67
2022/10/11 13:39:37;;;;;;;11.05;2.22;;;;;;;;;;5064254;28;20060;-67
2022/10/11 13:42:11;;;;;;;12.13;2.55;;;;;;;;;;5068005;28;20052;-68
2022/10/11 13:44:38;;;;;;;5.57;2.72;;;;;;;;;;5063271;28;20060;-68
2022/10/11 13:47:04;;;;;;;7.07;1.63;;;;;;;;;;5066822;28;20049;-67
2022/10/11 13:49:39;;;;;;;6.13;1.67;;;;;;;;;;5064730;28;20459;-68
2022/10/11 13:52:18;;;;;;;8.40;2.00;;;;;;;;;;5074090;28;20056;-69
2022/10/11 13:54:51;;;;;;;10.30;1.30;;;;;;;;;;5065675;28;20056;-69
2022/10/11 13:57:18;;;;;;;11.23;1.75;;;;;;;;;;5081744;28;20049;-69
2022/10/11 13:59:45;;;;;;;8.63;1.98;;;;;;;;;;5065956;28;20088;-70
2022/10/11 14:02:16;;;;;;;14.52;2.78;;;;;;;;;;5065158;28;20434;-71
2022/10/11 14:04:42;;;;;;;8.30;1.73;;;;;;;;;;5072198;28;20036;-71
2022/10/11 14:07:24;;;;;;;15.05;1.38;;;;;;;;;;5085177;28;20048;-69
2022/10/11 14:09:52;;;;;;;8.45;1.90;;;;;;;;;;5068523;28;20541;-71
2022/10/11 14:12:24;;;;;;;7.80;2.05;;;;;;;;;;5066225;28;20514;-70
2022/10/11 14:14:52;;;;;;;6.78;1.33;;;;;;;;;;5067858;28;20056;-68
2022/10/11 14:17:31;;;;;;;8.90;2.90;;;;;;;;;;5060488;28;20483;-69
2022/10/11 14:20:09;;;;;;;9.75;1.85;;;;;;;;;;5078106;28;20501;-67
2022/10/11 14:22:37;;;;;;;10.80;2.72;;;;;;;;;;5053722;28;20243;-66
2022/10/11 14:25:03;;;;;;;9.68;2.83;;;;;;;;;;5051879;28;20077;-67
2022/10/11 14:27:30;;;;;;;8.85;2.10;;;;;;;;;;5057115;28;20049;-66
2022/10/11 14:29:56;;;;;;;10.73;1.95;;;;;;;;;;5057262;28;20627;-66
2022/10/11 14:32:43;;;;;;;6.13;2.25;;;;;;;;;;5074750;28;20057;-67
2022/10/11 14:35:17;;;;;;;9.60;2.88;;;;;;;;;;5056332;28;20049;-68
2022/10/11 14:37:43;;;;;;;5.97;1.55;;;;;;;;;;5058670;28;20045;-67
2022/10/11 14:40:15;;;;;;;9.98;2.22;;;;;;;;;;5063242;28;20442;-67
2022/10/11 14:42:41;;;;;;;11.88;2.30;;;;;;;;;;5056577;28;20049;-67
2022/10/11 14:45:07;;;;;;;9.95;2.08;;;;;;;;;;5059966;28;20046;-66
2022/10/11 14:47:34;;;;;;;9.38;2.10;;;;;;;;;;5067471;28;20060;-66
2022/10/11 14:50:20;;;;;;;5.75;1.25;;;;;;;;;;5061207;28;20487;-69
2022/10/11 14:52:46;;;;;;;9.20;1.98;;;;;;;;;;5064001;28;20723;-68
2022/10/11 14:55:12;;;;;;;9.98;2.15;;;;;;;;;;5052084;28;20546;-67